Time;durP1;ratioP1;P1;durP2;ratioP2;P2;SDS_P1;SDS_P2;PMS_P1;PMS_P2;Temp;Humidity;BMP_temperature;BMP_pressure;BME280_temperature;BME280_humidity;BME280_pressure;Samples;Min_cycle;Max_cycle;Signal;HPM_P1;HPM_P2
2023/03/06 00:00:21;;;;;;;7.40;4.90;;;;;;;3.01;100.00;101019.44;4951434;28;20492;-70
2023/03/06 00:02:47;;;;;;;4.82;4.32;;;;;;;2.60;100.00;101015.91;4968965;28;20478;-69
2023/03/06 00:05:13;;;;;;;5.18;4.65;;;;;;;2.40;100.00;101011.50;4966633;28;20027;-69
2023/03/06 00:07:38;;;;;;;7.03;4.75;;;;;;;2.40;100.00;101016.69;4968255;28;20348;-68
2023/03/06 00:10:04;;;;;;;9.80;4.60;;;;;;;2.40;100.00;101016.69;4949436;28;20540;-68
2023/03/06 00:12:29;;;;;;;6.80;4.82;;;;;;;2.39;100.00;101007.19;4966995;28;20448;-69
2023/03/06 00:14:54;;;;;;;6.72;4.95;;;;;;;2.49;100.00;101005.44;4968696;28;20033;-68
2023/03/06 00:17:20;;;;;;;8.35;4.97;;;;;;;2.55;100.00;100997.66;4968076;28;20027;-69
2023/03/06 00:19:45;;;;;;;7.72;4.97;;;;;;;2.62;100.00;100993.38;4951534;28;20080;-69
2023/03/06 00:22:12;;;;;;;6.00;5.13;;;;;;;2.67;100.00;100991.63;4950768;28;20386;-69
2023/03/06 00:24:38;;;;;;;4.78;4.18;;;;;;;2.69;100.00;100989.03;4967797;28;20039;-71
2023/03/06 00:27:03;;;;;;;6.03;4.35;;;;;;;2.80;100.00;100989.03;4968844;28;20164;-70
2023/03/06 00:29:28;;;;;;;3.88;3.58;;;;;;;3.22;100.00;100979.47;4967679;28;20031;-71
2023/03/06 00:31:54;;;;;;;8.60;3.70;;;;;;;3.43;100.00;100966.44;4950872;28;20467;-70
2023/03/06 00:34:19;;;;;;;3.72;3.42;;;;;;;3.50;100.00;100968.16;4967237;28;20027;-69
2023/03/06 00:36:44;;;;;;;8.43;3.88;;;;;;;3.53;100.00;100974.22;4934399;28;20036;-69
2023/03/06 00:39:10;;;;;;;4.82;3.78;;;;;;;3.56;100.00;100967.25;4967691;28;20034;-69
2023/03/06 00:41:35;;;;;;;6.45;3.53;;;;;;;3.59;100.00;100956.84;4968185;28;20475;-69
2023/03/06 00:44:01;;;;;;;7.97;3.95;;;;;;;3.61;100.00;100961.16;4950863;28;20037;-70
2023/03/06 00:46:26;;;;;;;5.63;3.78;;;;;;;3.64;100.00;100957.69;4967519;28;20019;-70
2023/03/06 00:48:51;;;;;;;4.20;3.40;;;;;;;3.63;100.00;100951.63;4968150;28;20084;-69
2023/03/06 00:51:18;;;;;;;5.15;3.33;;;;;;;3.59;100.00;100951.63;4950832;28;20027;-68
2023/03/06 00:53:44;;;;;;;7.03;3.85;;;;;;;3.60;100.00;100949.03;4967063;28;20055;-70
2023/03/06 00:56:09;;;;;;;4.63;3.65;;;;;;;3.54;100.00;100941.22;4967230;28;20482;-70
2023/03/06 00:58:36;;;;;;;9.43;4.43;;;;;;;3.59;100.00;100943.81;4967192;28;20045;-70
2023/03/06 01:01:01;;;;;;;7.25;4.20;;;;;;;3.58;100.00;100944.69;4967764;28;20076;-70
2023/03/06 01:03:27;;;;;;;6.72;4.40;;;;;;;3.58;100.00;100936.88;4967415;28;20031;-70
2023/03/06 01:05:52;;;;;;;9.95;4.60;;;;;;;3.58;100.00;100931.66;4966693;28;20038;-69
2023/03/06 01:08:17;;;;;;;7.60;5.07;;;;;;;3.58;100.00;100924.69;4967518;28;20033;-70
2023/03/06 01:10:43;;;;;;;5.90;5.00;;;;;;;3.61;100.00;100929.03;4966461;28;20110;-69
2023/03/06 01:13:08;;;;;;;12.18;4.70;;;;;;;3.46;100.00;100923.00;4967608;28;20126;-70
2023/03/06 01:15:33;;;;;;;7.32;4.63;;;;;;;3.41;100.00;100927.38;4947774;28;20043;-69
2023/03/06 01:17:59;;;;;;;5.80;4.22;;;;;;;3.42;100.00;100929.09;4948413;29;20030;-68
2023/03/06 01:20:24;;;;;;;5.75;4.70;;;;;;;3.41;100.00;100929.97;4948204;28;20050;-70
2023/03/06 01:22:50;;;;;;;6.43;4.15;;;;;;;3.37;100.00;100925.66;4953913;28;20062;-70
2023/03/06 01:25:15;;;;;;;6.53;3.92;;;;;;;3.29;100.00;100931.72;4966883;28;20059;-70
2023/03/06 01:27:40;;;;;;;8.70;4.25;;;;;;;3.16;100.00;100930.00;4966628;28;20034;-70
2023/03/06 01:30:06;;;;;;;7.97;3.85;;;;;;;3.23;100.00;100930.88;4967724;28;20061;-69
2023/03/06 01:32:32;;;;;;;5.93;4.22;;;;;;;3.17;100.00;100921.34;4966687;28;20081;-69
2023/03/06 01:34:57;;;;;;;8.88;4.53;;;;;;;3.17;100.00;100913.53;4966341;28;20759;-69
2023/03/06 01:37:23;;;;;;;10.02;4.38;;;;;;;3.21;100.00;100919.56;4966524;28;20102;-71
2023/03/06 01:39:48;;;;;;;5.07;3.70;;;;;;;3.15;100.00;100923.06;4965752;28;20031;-69
2023/03/06 01:42:14;;;;;;;5.82;4.30;;;;;;;3.18;100.00;100923.06;4966858;28;20034;-70
2023/03/06 01:45:03;;;;;;;6.43;4.00;;;;;;;3.16;100.00;100920.47;4966926;28;20034;-69
2023/03/06 01:47:28;;;;;;;;;;;;;;;3.22;100.00;100922.19;4968466;28;20054;-70
2023/03/06 01:49:54;;;;;;;5.55;4.07;;;;;;;3.23;100.00;100913.53;4969120;28;20409;-70
2023/03/06 01:52:23;;;;;;;4.25;3.72;;;;;;;3.15;100.00;100916.13;4952106;28;20031;-68
2023/03/06 01:54:51;;;;;;;11.50;3.55;;;;;;;3.13;100.00;100909.19;4950148;28;20031;-71
2023/03/06 01:57:18;;;;;;;4.90;3.80;;;;;;;3.09;100.00;100908.31;4968774;28;20035;-70
2023/03/06 01:59:44;;;;;;;7.50;4.30;;;;;;;3.14;100.00;100914.41;4969112;28;20525;-70
2023/03/06 02:02:10;;;;;;;11.52;5.28;;;;;;;3.09;100.00;100902.25;4950475;28;20023;-72
2023/03/06 02:04:38;;;;;;;13.70;6.00;;;;;;;3.15;100.00;100899.63;4950755;28;20474;-70
2023/03/06 02:07:05;;;;;;;5.97;5.30;;;;;;;3.17;100.00;100900.50;4948857;28;20058;-70
2023/03/06 02:09:33;;;;;;;11.88;6.10;;;;;;;3.16;100.00;100901.34;4948472;28;20027;-69
2023/03/06 02:11:59;;;;;;;15.20;6.13;;;;;;;3.15;100.00;100891.81;4966901;28;20126;-71
2023/03/06 02:14:24;;;;;;;10.05;6.40;;;;;;;3.23;100.00;100887.47;4966013;28;20090;-70
2023/03/06 02:16:50;;;;;;;16.08;6.95;;;;;;;3.25;100.00;100885.72;4949994;28;20027;-71
2023/03/06 02:19:27;;;;;;;13.95;6.72;;;;;;;3.31;100.00;100879.63;4965649;28;20557;-71
2023/03/06 02:21:52;;;;;;;10.13;6.25;;;;;;;3.40;100.00;100884.81;4965985;28;20452;-69
2023/03/06 02:24:59;;;;;;;11.45;6.57;;;;;;;3.50;100.00;100877.84;4948271;28;20054;-71
2023/03/06 02:27:24;;;;;;;11.50;6.28;;;;;;;3.58;100.00;100869.13;4907297;29;20227;-70
2023/03/06 02:29:50;;;;;;;8.60;5.90;;;;;;;3.57;100.00;100854.34;4930011;29;20073;-69
2023/03/06 02:32:15;;;;;;;11.73;5.75;;;;;;;3.62;100.00;100857.81;4946345;28;20027;-70
2023/03/06 02:34:49;;;;;;;8.63;5.70;;;;;;;3.67;100.00;100864.72;4947247;29;20081;-70
2023/03/06 02:37:14;;;;;;;9.50;5.68;;;;;;;3.69;100.00;100862.13;4947236;28;20020;-69
2023/03/06 02:39:50;;;;;;;7.93;4.90;;;;;;;3.72;100.00;100853.41;4946626;28;20475;-71
2023/03/06 02:42:24;;;;;;;5.88;4.07;;;;;;;3.75;100.00;100843.84;4930473;29;20027;-70
2023/03/06 02:44:51;;;;;;;5.88;4.18;;;;;;;3.83;100.00;100846.41;4948482;28;20449;-69
2023/03/06 02:47:16;;;;;;;8.38;4.55;;;;;;;3.89;100.00;100837.69;4948154;29;20035;-73
2023/03/06 02:49:42;;;;;;;5.20;4.07;;;;;;;3.92;100.00;100835.91;4948136;28;20058;-70
2023/03/06 02:52:07;;;;;;;7.45;4.00;;;;;;;3.91;100.00;100822.88;4948614;28;20036;-70
2023/03/06 02:54:32;;;;;;;4.88;3.70;;;;;;;3.94;100.00;100825.47;4960273;28;20118;-71
2023/03/06 02:56:58;;;;;;;5.85;3.42;;;;;;;3.97;100.00;100822.00;4966508;28;20521;-70
2023/03/06 02:59:23;;;;;;;3.53;3.00;;;;;;;3.95;100.00;100826.34;4965677;28;20038;-70
2023/03/06 03:01:48;;;;;;;3.72;2.92;;;;;;;3.90;100.00;100816.81;4966195;28;20139;-68
2023/03/06 03:04:14;;;;;;;4.68;3.22;;;;;;;3.92;100.00;100809.00;4966304;28;20609;-71
2023/03/06 03:06:39;;;;;;;4.70;2.53;;;;;;;3.94;100.00;100806.38;4966066;28;20534;-70
2023/03/06 03:09:04;;;;;;;7.15;3.25;;;;;;;3.87;100.00;100800.31;4965577;28;20512;-69
2023/03/06 03:11:30;;;;;;;3.60;3.08;;;;;;;3.96;100.00;100802.00;4965502;28;20054;-68
2023/03/06 03:13:55;;;;;;;6.93;2.63;;;;;;;4.00;100.00;100806.34;4966348;28;20518;-69
2023/03/06 03:16:21;;;;;;;4.90;2.55;;;;;;;3.97;100.00;100809.81;4965713;28;20456;-69
2023/03/06 03:18:50;;;;;;;4.50;3.10;;;;;;;3.99;100.00;100807.19;4966122;28;20030;-71
2023/03/06 03:21:16;;;;;;;7.05;2.50;;;;;;;4.07;100.00;100804.53;4965067;28;20128;-69
2023/03/06 03:23:41;;;;;;;3.60;2.30;;;;;;;4.08;100.00;100801.91;4965160;28;20030;-70
2023/03/06 03:26:16;;;;;;;3.78;2.20;;;;;;;4.14;100.00;100801.00;4965226;28;20684;-69
2023/03/06 03:28:42;;;;;;;3.72;2.25;;;;;;;4.18;100.00;100800.09;4948660;28;20030;-71
2023/03/06 03:31:09;;;;;;;3.10;2.20;;;;;;;4.18;100.00;100800.09;4966231;28;20058;-70
2023/03/06 03:33:35;;;;;;;4.50;2.72;;;;;;;4.20;100.00;100793.13;4965278;28;20035;-69
2023/03/06 03:36:02;;;;;;;3.30;2.40;;;;;;;4.16;100.00;100789.66;4948640;28;20475;-71
2023/03/06 03:38:28;;;;;;;4.97;2.30;;;;;;;4.26;100.00;100785.25;4964822;28;20026;-70
2023/03/06 03:40:53;;;;;;;3.95;2.92;;;;;;;4.29;100.00;100784.38;4946445;28;20110;-71
2023/03/06 03:43:19;;;;;;;7.43;2.75;;;;;;;4.26;100.00;100790.47;4965514;28;20027;-70
2023/03/06 03:45:44;;;;;;;6.22;2.80;;;;;;;4.23;100.00;100780.06;4964895;28;20039;-69
2023/03/06 03:48:10;;;;;;;3.55;2.80;;;;;;;4.18;100.00;100781.84;4965142;28;20483;-70
2023/03/06 03:50:35;;;;;;;3.92;2.67;;;;;;;4.26;100.00;100776.56;4965897;28;20030;-70
2023/03/06 03:53:00;;;;;;;8.80;2.80;;;;;;;4.28;100.00;100774.81;4965330;28;20034;-69
2023/03/06 03:55:26;;;;;;;7.70;3.22;;;;;;;4.34;100.00;100774.78;4964977;28;20631;-70
2023/03/06 03:57:52;;;;;;;4.18;3.35;;;;;;;4.36;100.00;100774.75;4948083;28;20030;-70
2023/03/06 04:00:17;;;;;;;4.05;2.88;;;;;;;4.34;100.00;100763.47;4965576;28;20045;-71
2023/03/06 04:02:44;;;;;;;3.92;3.00;;;;;;;4.29;100.00;100756.53;4948619;28;20027;-70
2023/03/06 04:05:11;;;;;;;5.03;2.80;;;;;;;4.35;100.00;100754.75;4965711;28;20033;-69
2023/03/06 04:07:36;;;;;;;3.35;2.88;;;;;;;4.29;100.00;100756.53;4963620;28;20114;-69
2023/03/06 04:10:02;;;;;;;4.88;2.85;;;;;;;4.35;100.00;100754.75;4949542;28;20101;-71
2023/03/06 04:12:28;;;;;;;7.55;4.38;;;;;;;4.40;100.00;100753.81;4966221;28;20053;-69
2023/03/06 04:14:53;;;;;;;3.88;3.28;;;;;;;4.42;100.00;100756.41;4968971;28;20031;-69
2023/03/06 04:17:18;;;;;;;3.67;3.30;;;;;;;4.46;100.00;100758.13;4951330;28;20027;-70
2023/03/06 04:19:44;;;;;;;7.28;3.53;;;;;;;4.46;100.00;100762.47;4963933;28;20035;-69
2023/03/06 04:22:09;;;;;;;4.63;3.10;;;;;;;4.51;100.00;100758.06;4949320;28;20027;-69
2023/03/06 04:24:34;;;;;;;5.20;2.83;;;;;;;4.58;100.00;100762.38;4948220;28;20027;-69
2023/03/06 04:27:00;;;;;;;3.95;3.47;;;;;;;4.61;100.00;100767.53;4949433;28;20395;-72
2023/03/06 04:29:25;;;;;;;9.23;3.83;;;;;;;4.58;100.00;100757.16;4948793;28;20106;-69
2023/03/06 04:31:51;;;;;;;4.53;3.58;;;;;;;4.66;100.00;100757.03;4967408;28;20546;-70
2023/03/06 04:34:16;;;;;;;4.80;4.18;;;;;;;4.61;100.00;100758.84;4966565;28;20625;-69
2023/03/06 04:36:44;;;;;;;5.63;4.07;;;;;;;4.56;100.00;100751.06;4968113;28;20677;-69
2023/03/06 04:39:13;;;;;;;9.80;3.67;;;;;;;4.58;100.00;100738.00;4966120;28;20336;-69
2023/03/06 04:41:39;;;;;;;6.28;3.78;;;;;;;4.50;100.00;100738.06;4967500;28;20066;-68
2023/03/06 04:44:05;;;;;;;6.95;3.70;;;;;;;4.45;100.00;100740.72;4968143;28;20035;-71
2023/03/06 04:46:31;;;;;;;8.85;4.05;;;;;;;4.45;100.00;100735.50;4950493;28;20033;-69
2023/03/06 04:48:56;;;;;;;7.47;4.13;;;;;;;4.43;100.00;100729.47;4967226;28;20031;-70
2023/03/06 04:51:22;;;;;;;6.57;4.00;;;;;;;4.42;100.00;100725.09;4967627;28;20045;-71
2023/03/06 04:53:48;;;;;;;7.18;4.32;;;;;;;4.42;100.00;100727.72;4966757;28;20116;-70
2023/03/06 04:56:13;;;;;;;6.13;4.70;;;;;;;4.51;100.00;100732.84;4967764;28;20195;-71
2023/03/06 04:58:38;;;;;;;6.07;4.78;;;;;;;4.56;100.00;100727.56;4965858;28;20413;-69
2023/03/06 05:01:04;;;;;;;5.15;4.65;;;;;;;4.53;100.00;100725.88;4967548;28;20081;-71
2023/03/06 05:03:30;;;;;;;8.77;4.47;;;;;;;4.52;100.00;100726.72;4966066;28;20038;-69
2023/03/06 05:05:55;;;;;;;10.85;4.40;;;;;;;4.42;100.00;100717.28;4966625;28;20023;-70
2023/03/06 05:08:22;;;;;;;5.80;3.83;;;;;;;4.42;100.00;100720.75;4956755;28;20437;-69
2023/03/06 05:11:01;;;;;;;4.72;3.67;;;;;;;4.43;100.00;100716.41;4946537;29;20098;-69
2023/03/06 05:13:26;;;;;;;6.60;4.38;;;;;;;4.39;100.00;100714.69;4956426;28;20047;-70
2023/03/06 05:15:52;;;;;;;6.75;4.07;;;;;;;4.40;100.00;100713.84;4966589;28;20467;-70
2023/03/06 05:18:18;;;;;;;6.35;3.78;;;;;;;4.39;100.00;100717.31;4967141;28;20050;-68
2023/03/06 05:20:43;;;;;;;4.28;3.58;;;;;;;4.46;100.00;100711.16;4949926;28;20027;-70
2023/03/06 05:23:09;;;;;;;4.78;3.78;;;;;;;4.51;100.00;100711.97;4966375;28;20027;-69
2023/03/06 05:25:34;;;;;;;8.88;4.15;;;;;;;4.55;100.00;100718.03;4967200;28;20176;-70
2023/03/06 05:27:59;;;;;;;4.40;4.00;;;;;;;4.65;100.00;100714.44;4967574;28;20111;-69
2023/03/06 05:30:25;;;;;;;6.65;4.28;;;;;;;4.67;100.00;100715.25;4966501;28;20031;-69
2023/03/06 05:32:50;;;;;;;10.98;5.05;;;;;;;4.64;100.00;100714.44;4949954;28;20026;-70
2023/03/06 05:35:20;;;;;;;5.07;4.55;;;;;;;4.71;100.00;100720.44;4949024;28;20046;-69
2023/03/06 05:37:46;;;;;;;5.45;3.88;;;;;;;4.76;100.00;100729.94;4966717;28;20052;-68
2023/03/06 05:40:12;;;;;;;5.78;2.90;;;;;;;4.71;100.00;100729.16;4965956;28;20118;-69
2023/03/06 05:42:37;;;;;;;5.40;2.95;;;;;;;4.60;100.00;100733.66;4966629;28;20027;-69
2023/03/06 05:45:03;;;;;;;4.45;2.58;;;;;;;4.65;100.00;100729.22;4966901;28;20512;-68
2023/03/06 05:47:30;;;;;;;6.13;2.15;;;;;;;4.54;100.00;100724.97;4966556;28;20031;-70
2023/03/06 05:49:55;;;;;;;5.28;1.50;;;;;;;4.52;100.00;100713.69;4967466;28;20042;-69
2023/03/06 05:52:20;;;;;;;6.05;2.00;;;;;;;4.45;100.00;100717.25;4965085;28;20031;-70
2023/03/06 05:54:49;;;;;;;2.15;1.30;;;;;;;4.47;100.00;100715.50;4966404;28;20069;-70
2023/03/06 05:57:14;;;;;;;5.47;1.35;;;;;;;4.46;100.00;100713.78;4962483;28;20035;-70
2023/03/06 05:59:40;;;;;;;5.65;1.20;;;;;;;4.51;100.00;100717.19;4950277;28;20030;-71
2023/03/06 06:02:05;;;;;;;5.78;1.73;;;;;;;4.67;100.00;100730.06;4963098;28;20026;-72
2023/03/06 06:04:31;;;;;;;8.63;1.65;;;;;;;4.67;100.00;100720.47;4956390;28;20034;-71
2023/03/06 06:06:58;;;;;;;3.20;0.82;;;;;;;4.73;100.00;100722.16;4958705;28;20100;-69
2023/03/06 06:09:24;;;;;;;7.47;1.10;;;;;;;4.75;100.00;100716.91;4957843;28;20062;-70
2023/03/06 06:11:55;;;;;;;2.75;1.13;;;;;;;4.73;100.00;100718.69;4958264;28;20301;-70
2023/03/06 06:14:20;;;;;;;5.43;1.33;;;;;;;4.64;100.00;100722.28;4961845;28;20047;-71
2023/03/06 06:16:46;;;;;;;3.33;1.00;;;;;;;4.56;100.00;100714.53;4950339;28;20474;-70
2023/03/06 06:19:17;;;;;;;3.08;1.08;;;;;;;4.50;100.00;100715.47;4966520;28;20027;-66
2023/03/06 06:21:49;;;;;;;1.15;0.70;;;;;;;4.36;100.00;100715.59;4960049;28;20023;-69
2023/03/06 06:24:16;;;;;;;3.70;1.00;;;;;;;4.36;100.00;100715.59;4965330;28;20381;-71
2023/03/06 06:26:42;;;;;;;6.55;0.93;;;;;;;4.39;100.00;100717.31;4965537;28;20043;-68
2023/03/06 06:29:08;;;;;;;8.40;1.17;;;;;;;4.38;100.00;100713.84;4965660;28;20045;-71
2023/03/06 06:31:35;;;;;;;1.20;0.95;;;;;;;4.33;100.00;100717.38;4964831;28;20515;-70
2023/03/06 06:34:01;;;;;;;3.33;0.98;;;;;;;4.28;100.00;100713.06;4965113;28;20023;-69
2023/03/06 06:36:26;;;;;;;2.97;1.30;;;;;;;4.36;100.00;100710.38;4965283;28;20357;-69
2023/03/06 06:38:52;;;;;;;2.83;1.10;;;;;;;4.30;100.00;100719.13;4955544;28;20114;-70
2023/03/06 06:41:17;;;;;;;1.45;1.00;;;;;;;4.34;100.00;100721.72;4945427;29;20146;-70
2023/03/06 06:43:42;;;;;;;1.40;1.00;;;;;;;4.30;100.00;100726.97;4956833;28;20062;-70
2023/03/06 06:46:08;;;;;;;5.35;1.40;;;;;;;4.30;100.00;100721.75;4948597;28;20103;-71
2023/03/06 06:48:33;;;;;;;1.98;1.10;;;;;;;4.27;100.00;100724.38;4943737;28;20157;-71
2023/03/06 06:50:59;;;;;;;3.25;1.00;;;;;;;4.33;100.00;100735.66;4938443;28;20098;-68
2023/03/06 06:53:25;;;;;;;1.60;1.40;;;;;;;4.39;100.00;100736.44;4955551;28;20030;-72
2023/03/06 06:55:50;;;;;;;11.27;1.58;;;;;;;4.40;100.00;100727.72;4961252;28;20168;-70
2023/03/06 06:58:16;;;;;;;9.93;2.70;;;;;;;4.49;100.00;100731.13;4962096;28;20027;-73
2023/03/06 07:00:41;;;;;;;10.82;4.68;;;;;;;4.49;100.00;100726.75;4964702;28;20478;-70
2023/03/06 07:03:07;;;;;;;10.30;4.05;;;;;;;4.46;100.00;100721.59;4964690;28;20042;-70
2023/03/06 07:05:33;;;;;;;6.50;2.58;;;;;;;4.59;100.00;100724.94;4962670;28;20023;-73
2023/03/06 07:07:58;;;;;;;5.05;1.60;;;;;;;4.60;100.00;100728.41;4963633;28;20475;-72
2023/03/06 07:10:23;;;;;;;5.57;1.90;;;;;;;4.51;100.00;100721.53;4962521;28;20501;-73
2023/03/06 07:12:49;;;;;;;6.38;1.88;;;;;;;4.59;100.00;100729.28;4965050;28;20126;-71
2023/03/06 07:15:15;;;;;;;10.77;1.88;;;;;;;4.57;100.00;100733.66;4956733;28;20102;-74
2023/03/06 07:17:40;;;;;;;4.97;1.85;;;;;;;4.57;100.00;100731.91;4948791;28;20452;-72
2023/03/06 07:20:07;;;;;;;6.30;1.95;;;;;;;4.55;100.00;100733.69;4946341;28;20498;-74
2023/03/06 07:22:33;;;;;;;1.90;1.65;;;;;;;4.54;100.00;100732.81;4947886;28;20026;-74
2023/03/06 07:24:59;;;;;;;3.17;1.75;;;;;;;4.54;100.00;100732.81;4963181;28;20510;-74
2023/03/06 07:27:25;;;;;;;3.88;1.75;;;;;;;4.59;100.00;100734.50;4964777;28;20034;-73
2023/03/06 07:29:51;;;;;;;2.75;2.17;;;;;;;4.63;100.00;100733.56;4965207;28;20648;-73
2023/03/06 07:32:16;;;;;;;11.38;2.00;;;;;;;4.70;100.00;100730.03;4965123;28;20034;-68
2023/03/06 07:34:43;;;;;;;4.85;2.15;;;;;;;4.78;100.00;100728.19;4951445;28;20063;-72
2023/03/06 07:37:09;;;;;;;2.53;1.88;;;;;;;4.84;100.00;100727.25;4962510;28;20076;-71
2023/03/06 07:39:34;;;;;;;6.88;2.42;;;;;;;4.97;100.00;100722.75;4964795;28;20218;-76
2023/03/06 07:41:59;;;;;;;3.78;2.22;;;;;;;4.88;100.00;100717.66;4964581;28;20027;-74
2023/03/06 07:44:25;;;;;;;2.83;2.28;;;;;;;4.88;100.00;100715.88;4968175;28;20069;-73
2023/03/06 07:46:50;;;;;;;4.28;2.33;;;;;;;5.08;100.00;100721.78;4966404;28;20084;-74
2023/03/06 07:49:16;;;;;;;5.10;2.65;;;;;;;5.07;100.00;100718.28;4962238;28;20483;-74
2023/03/06 07:51:42;;;;;;;8.45;3.20;;;;;;;5.13;100.00;100722.56;5024648;28;20502;-66
2023/03/06 07:54:07;;;;;;;7.13;3.08;;;;;;;5.14;100.00;100719.94;4963343;28;20034;-73
2023/03/06 07:56:33;;;;;;;6.85;2.88;;;;;;;5.21;100.00;100719.84;4926031;28;20491;-74
2023/03/06 07:58:59;;;;;;;9.20;2.40;;;;;;;5.26;100.00;100720.63;4959004;28;20101;-73
2023/03/06 08:01:25;;;;;;;10.82;2.33;;;;;;;5.44;100.00;100727.38;4957893;28;20105;-74
2023/03/06 08:03:51;;;;;;;6.78;2.15;;;;;;;5.52;100.00;100725.53;4957748;28;20054;-73
2023/03/06 08:06:22;;;;;;;6.72;2.58;;;;;;;5.60;100.00;100725.38;4963723;28;20374;-74
2023/03/06 08:08:49;;;;;;;5.88;1.85;;;;;;;5.76;100.00;100726.03;4955918;28;20479;-73
2023/03/06 08:11:16;;;;;;;6.85;1.95;;;;;;;5.93;100.00;100724.91;4962674;28;20177;-71
2023/03/06 08:13:42;;;;;;;6.03;2.50;;;;;;;6.12;100.00;100722.00;4940589;28;20054;-73
2023/03/06 08:16:08;;;;;;;7.80;1.80;;;;;;;6.06;100.00;100730.81;4956123;28;20027;-74
2023/03/06 08:18:34;;;;;;;7.20;1.55;;;;;;;6.16;100.00;100726.28;4957431;28;20027;-72
2023/03/06 08:21:01;;;;;;;7.28;1.45;;;;;;;6.23;100.00;100722.66;4938441;28;20020;-73
2023/03/06 08:23:26;;;;;;;4.07;1.40;;;;;;;6.45;100.00;100723.13;4958723;28;20375;-73
2023/03/06 08:25:59;;;;;;;3.42;1.15;;;;;;;6.29;100.00;100726.94;4957304;28;20023;-73
2023/03/06 08:28:25;;;;;;;4.18;1.15;;;;;;;6.35;100.00;100731.19;4960255;28;20104;-73
2023/03/06 08:30:50;;;;;;;4.15;1.00;;;;;;;6.55;100.00;100728.19;4955421;28;20077;-72
2023/03/06 08:33:16;;;;;;;6.20;1.33;;;;;;;6.81;100.00;100735.53;4940591;28;20055;-72
2023/03/06 08:35:41;;;;;;;4.57;1.30;;;;;;;6.60;100.00;100736.84;4956747;28;20027;-71
2023/03/06 08:38:06;;;;;;;6.57;1.33;;;;;;;6.54;100.00;100731.72;4955996;28;20034;-72
2023/03/06 08:40:32;;;;;;;6.78;1.65;;;;;;;6.63;100.00;100725.44;4957754;28;20039;-71
2023/03/06 08:42:57;;;;;;;1.83;0.98;;;;;;;6.66;100.00;100735.88;4966502;28;20031;-73
2023/03/06 08:45:22;;;;;;;3.25;0.93;;;;;;;6.65;100.00;100735.00;4967495;28;20058;-68
2023/03/06 08:47:48;;;;;;;1.40;0.90;;;;;;;7.02;100.00;100730.78;4965367;28;20059;-73
2023/03/06 08:50:13;;;;;;;6.72;1.30;;;;;;;7.01;100.00;100742.16;4966933;28;20050;-73
2023/03/06 08:52:38;;;;;;;2.00;1.00;;;;;;;7.09;100.00;100728.88;4966496;28;20029;-67
2023/03/06 08:55:04;;;;;;;16.52;1.60;;;;;;;6.83;100.00;100728.53;4966997;28;20027;-70
2023/03/06 08:57:29;;;;;;;18.30;1.88;;;;;;;7.02;100.00;100725.56;4966232;28;20049;-70
2023/03/06 08:59:55;;;;;;;6.35;1.63;;;;;;;7.14;100.00;100723.56;4966710;28;20095;-72
2023/03/06 09:02:20;;;;;;;3.88;1.17;;;;;;;7.29;100.00;100720.59;4966224;28;20037;-69
2023/03/06 09:04:45;;;;;;;5.05;1.40;;;;;;;7.24;100.00;100721.59;4948927;28;20039;-71
2023/03/06 09:07:11;;;;;;;4.43;1.38;;;;;;;7.14;100.00;100724.44;4964728;28;20197;-70
2023/03/06 09:09:36;;;;;;;4.90;1.00;;;;;;;7.18;100.00;100725.22;4966473;28;20071;-70
2023/03/06 09:12:02;;;;;;;3.40;1.13;;;;;;;6.88;100.00;100727.56;4963264;28;20088;-70
2023/03/06 09:14:28;;;;;;;3.55;1.02;;;;;;;6.87;100.00;100723.22;4966601;28;20037;-71
2023/03/06 09:16:53;;;;;;;3.97;1.02;;;;;;;7.03;100.00;100723.78;4964756;28;20035;-71
2023/03/06 09:19:18;;;;;;;2.35;0.98;;;;;;;7.39;100.00;100723.88;4967081;28;20395;-67
2023/03/06 09:21:44;;;;;;;3.33;1.08;;;;;;;7.45;99.78;100721.13;4966937;28;20023;-70
2023/03/06 09:24:09;;;;;;;6.03;1.20;;;;;;;7.47;98.53;100723.72;4945321;28;20027;-70
2023/03/06 09:26:35;;;;;;;2.88;1.48;;;;;;;7.57;98.85;100722.59;4948133;28;20027;-71
2023/03/06 09:29:00;;;;;;;8.40;1.23;;;;;;;7.67;100.00;100722.38;4961192;28;20049;-70
2023/03/06 09:31:25;;;;;;;3.08;1.33;;;;;;;7.71;100.00;100724.88;4966605;28;20034;-69
2023/03/06 09:33:51;;;;;;;6.82;1.40;;;;;;;7.65;100.00;100725.03;4947985;28;20049;-70
2023/03/06 09:36:19;;;;;;;7.90;1.20;;;;;;;7.75;100.00;100723.06;4966333;28;20041;-73
2023/03/06 09:38:46;;;;;;;3.05;1.20;;;;;;;7.99;100.00;100725.13;4964725;28;20074;-69
2023/03/06 09:41:30;;;;;;;2.42;1.20;;;;;;;8.20;100.00;100721.09;4966159;28;20114;-67
2023/03/06 09:44:04;;;;;;;7.80;1.42;;;;;;;8.36;98.01;100728.56;4965388;28;20161;-68
2023/03/06 09:46:41;;;;;;;2.67;0.98;;;;;;;8.48;96.42;100722.97;4966819;28;20142;-71
2023/03/06 09:49:21;;;;;;;2.83;1.00;;;;;;;8.26;96.83;100720.94;4964863;28;20080;-71
2023/03/06 09:51:59;;;;;;;2.20;1.38;;;;;;;7.82;98.43;100714.16;4949481;28;20114;-68
2023/03/06 09:54:51;;;;;;;7.15;1.25;;;;;;;7.62;99.76;100714.63;4959221;28;20490;-71
2023/03/06 09:57:28;;;;;;;4.07;1.58;;;;;;;7.92;99.75;100716.53;4935063;28;20039;-69
2023/03/06 09:59:56;;;;;;;6.72;1.52;;;;;;;8.06;97.02;100708.31;4958705;28;20033;-72
2023/03/06 10:02:30;;;;;;;5.57;1.40;;;;;;;8.03;98.51;100711.00;5030626;28;20454;-71
2023/03/06 10:04:59;;;;;;;7.35;1.45;;;;;;;8.03;99.42;100709.25;4966454;28;20050;-70
2023/03/06 10:07:35;;;;;;;6.35;1.50;;;;;;;8.26;98.06;100713.06;4964660;28;20027;-71
2023/03/06 10:10:05;;;;;;;6.55;1.60;;;;;;;8.22;98.14;100709.63;4947833;28;20016;-68
2023/03/06 10:12:34;;;;;;;1.73;1.30;;;;;;;8.01;98.16;100712.81;4965454;28;20175;-71
2023/03/06 10:15:17;;;;;;;7.97;3.40;;;;;;;7.64;100.00;100715.44;4947806;28;20131;-71
2023/03/06 10:17:43;;;;;;;6.93;1.60;;;;;;;7.49;100.00;100716.66;4932476;28;20030;-71
2023/03/06 10:20:17;;;;;;;6.47;2.17;;;;;;;7.68;100.00;100717.09;4965196;28;20038;-67
2023/03/06 10:23:00;;;;;;;6.32;2.13;;;;;;;7.62;100.00;100711.13;4965998;28;20023;-71
2023/03/06 10:25:30;;;;;;;6.65;1.92;;;;;;;7.53;100.00;100713.06;4947774;28;20046;-71
2023/03/06 10:27:55;;;;;;;4.53;1.55;;;;;;;7.52;100.00;100706.09;4947826;28;20038;-71
2023/03/06 10:30:54;;;;;;;7.25;2.10;;;;;;;7.31;100.00;100705.69;4964536;28;20032;-72
2023/03/06 10:33:39;;;;;;;4.38;1.92;;;;;;;7.26;100.00;100711.94;4964736;28;20067;-69
2023/03/06 10:36:05;;;;;;;3.40;2.17;;;;;;;7.36;100.00;100705.59;4942483;28;20549;-70
2023/03/06 10:38:37;;;;;;;4.35;2.63;;;;;;;7.23;100.00;100702.41;4938142;28;20244;-71
2023/03/06 10:41:09;;;;;;;7.50;3.10;;;;;;;7.50;100.00;100692.19;4960392;28;20023;-66
2023/03/06 10:43:36;;;;;;;8.43;3.42;;;;;;;7.51;100.00;100695.66;4956841;28;20042;-70
2023/03/06 10:46:03;;;;;;;12.95;4.05;;;;;;;7.57;100.00;100693.75;4938289;28;20035;-74
2023/03/06 10:48:29;;;;;;;4.50;2.92;;;;;;;7.93;100.00;100687.66;4939508;28;20030;-73
2023/03/06 10:51:17;;;;;;;7.63;3.17;;;;;;;8.28;100.00;100682.34;4941386;28;20113;-74
2023/03/06 10:53:57;;;;;;;7.32;3.50;;;;;;;8.21;100.00;100684.31;4956811;28;20030;-73
2023/03/06 10:56:33;;;;;;;6.65;3.22;;;;;;;8.22;100.00;100685.19;4957981;28;20027;-73
2023/03/06 10:59:06;;;;;;;5.53;3.50;;;;;;;8.33;100.00;100682.25;4963207;28;20035;-72
2023/03/06 11:01:31;;;;;;;5.82;3.80;;;;;;;8.58;100.00;100676.38;4960413;28;20034;-69
2023/03/06 11:04:28;;;;;;;6.82;3.60;;;;;;;8.53;100.00;100675.59;4964373;28;20046;-72
2023/03/06 11:07:11;;;;;;;6.32;3.60;;;;;;;8.80;100.00;100666.09;4926036;28;20091;-74
2023/03/06 11:09:37;;;;;;;10.52;4.60;;;;;;;9.20;100.00;100663.16;4953700;28;20035;-74
2023/03/06 11:12:41;;;;;;;8.13;3.90;;;;;;;9.23;100.00;100668.31;4954818;28;20111;-73
2023/03/06 11:15:17;;;;;;;8.82;4.03;;;;;;;9.27;100.00;100655.97;4996191;28;20030;-74
2023/03/06 11:18:03;;;;;;;6.47;4.43;;;;;;;9.40;100.00;100656.41;5007443;28;20042;-75
2023/03/06 11:20:31;;;;;;;12.65;5.30;;;;;;;9.33;100.00;100648.72;4968555;28;20046;-74
2023/03/06 11:23:11;;;;;;;10.32;4.93;;;;;;;9.67;100.00;100643.28;4953567;28;20043;-73
2023/03/06 11:25:43;;;;;;;8.25;5.22;;;;;;;9.32;100.00;100644.38;4968826;28;20120;-71